sensor_id;sensor_type;location;lat;lon;timestamp;temperature;humidity
51837;DHT22;38941;53.254;6.600;2023-03-01T00:00:25;1.90;98.70
51837;DHT22;38941;53.254;6.600;2023-03-01T00:02:26;2.60;98.80
51837;DHT22;38941;53.254;6.600;2023-03-01T00:04:27;1.40;98.70
51837;DHT22;38941;53.254;6.600;2023-03-01T00:06:30;1.40;98.90
51837;DHT22;38941;53.254;6.600;2023-03-01T00:08:31;1.40;98.90
51837;DHT22;38941;53.254;6.600;2023-03-01T00:10:34;1.40;99.10
51837;DHT22;38941;53.254;6.600;2023-03-01T00:12:34;2.90;99.70
51837;DHT22;38941;53.254;6.600;2023-03-01T00:14:38;2.80;99.40
51837;DHT22;38941;53.254;6.600;2023-03-01T00:16:40;1.30;99.10
51837;DHT22;38941;53.254;6.600;2023-03-01T00:18:42;2.10;99.20
51837;DHT22;38941;53.254;6.600;2023-03-01T00:20:49;2.10;99.30
51837;DHT22;38941;53.254;6.600;2023-03-01T00:22:51;1.70;98.90
51837;DHT22;38941;53.254;6.600;2023-03-01T00:24:52;1.80;99.10
51837;DHT22;38941;53.254;6.600;2023-03-01T00:26:54;2.00;99.20
51837;DHT22;38941;53.254;6.600;2023-03-01T00:28:58;1.20;98.90
51837;DHT22;38941;53.254;6.600;2023-03-01T00:31:07;1.10;99.30
51837;DHT22;38941;53.254;6.600;2023-03-01T00:33:09;1.10;99.30
51837;DHT22;38941;53.254;6.600;2023-03-01T00:35:10;1.10;99.70
51837;DHT22;38941;53.254;6.600;2023-03-01T00:37:12;1.40;99.70
51837;DHT22;38941;53.254;6.600;2023-03-01T00:39:15;0.50;99.60
51837;DHT22;38941;53.254;6.600;2023-03-01T00:41:18;1.60;99.50
51837;DHT22;38941;53.254;6.600;2023-03-01T00:43:20;0.90;99.50
51837;DHT22;38941;53.254;6.600;2023-03-01T00:45:22;1.70;99.90
51837;DHT22;38941;53.254;6.600;2023-03-01T00:47:25;0.90;99.60
51837;DHT22;38941;53.254;6.600;2023-03-01T00:49:27;0.90;99.70
51837;DHT22;38941;53.254;6.600;2023-03-01T00:51:28;0.90;99.70
51837;DHT22;38941;53.254;6.600;2023-03-01T00:53:30;1.00;99.60
51837;DHT22;38941;53.254;6.600;2023-03-01T00:55:31;0.80;99.80
51837;DHT22;38941;53.254;6.600;2023-03-01T00:57:32;1.00;99.90
51837;DHT22;38941;53.254;6.600;2023-03-01T00:59:33;0.70;99.90
51837;DHT22;38941;53.254;6.600;2023-03-01T01:01:35;0.60;99.90
51837;DHT22;38941;53.254;6.600;2023-03-01T01:03:37;1.80;99.90
51837;DHT22;38941;53.254;6.600;2023-03-01T01:05:37;1.30;99.90
51837;DHT22;38941;53.254;6.600;2023-03-01T01:07:38;-0.40;99.80
51837;DHT22;38941;53.254;6.600;2023-03-01T01:09:40;1.40;99.90
51837;DHT22;38941;53.254;6.600;2023-03-01T01:11:43;1.10;99.90
51837;DHT22;38941;53.254;6.600;2023-03-01T01:13:46;1.60;99.90
51837;DHT22;38941;53.254;6.600;2023-03-01T01:15:47;0.70;99.90
51837;DHT22;38941;53.254;6.600;2023-03-01T01:17:49;1.60;99.90
51837;DHT22;38941;53.254;6.600;2023-03-01T01:19:49;0.20;99.90
51837;DHT22;38941;53.254;6.600;2023-03-01T01:21:52;1.70;99.90
51837;DHT22;38941;53.254;6.600;2023-03-01T01:23:53;0.40;99.90
51837;DHT22;38941;53.254;6.600;2023-03-01T01:25:54;0.80;99.90
51837;DHT22;38941;53.254;6.600;2023-03-01T01:27:56;1.70;99.90
51837;DHT22;38941;53.254;6.600;2023-03-01T01:29:56;1.30;99.90
51837;DHT22;38941;53.254;6.600;2023-03-01T01:31:59;0.40;99.90
51837;DHT22;38941;53.254;6.600;2023-03-01T01:34:06;0.40;99.90
51837;DHT22;38941;53.254;6.600;2023-03-01T01:36:09;-0.70;99.90
51837;DHT22;38941;53.254;6.600;2023-03-01T01:38:12;0.10;99.90
51837;DHT22;38941;53.254;6.600;2023-03-01T01:40:13;0.20;99.90
51837;DHT22;38941;53.254;6.600;2023-03-01T01:42:19;0.40;99.90
51837;DHT22;38941;53.254;6.600;2023-03-01T01:44:25;0.50;99.90
51837;DHT22;38941;53.254;6.600;2023-03-01T01:46:34;0.10;99.90
51837;DHT22;38941;53.254;6.600;2023-03-01T01:48:46;1.40;99.90
51837;DHT22;38941;53.254;6.600;2023-03-01T01:50:58;0.90;99.90
51837;DHT22;38941;53.254;6.600;2023-03-01T01:52:59;-0.70;99.90
51837;DHT22;38941;53.254;6.600;2023-03-01T01:57:09;0.10;99.90
51837;DHT22;38941;53.254;6.600;2023-03-01T01:59:12;0.00;99.90
51837;DHT22;38941;53.254;6.600;2023-03-01T02:01:13;0.00;99.90
51837;DHT22;38941;53.254;6.600;2023-03-01T02:03:20;0.00;99.90
51837;DHT22;38941;53.254;6.600;2023-03-01T02:07:28;0.00;99.90
51837;DHT22;38941;53.254;6.600;2023-03-01T02:09:31;-0.10;99.90
51837;DHT22;38941;53.254;6.600;2023-03-01T02:11:33;0.10;99.90
51837;DHT22;38941;53.254;6.600;2023-03-01T02:13:35;0.60;99.90
51837;DHT22;38941;53.254;6.600;2023-03-01T02:15:37;-0.20;99.90
51837;DHT22;38941;53.254;6.600;2023-03-01T02:17:38;-0.20;99.90
51837;DHT22;38941;53.254;6.600;2023-03-01T02:22:13;-0.40;99.90
51837;DHT22;38941;53.254;6.600;2023-03-01T02:28:37;-0.60;99.90
51837;DHT22;38941;53.254;6.600;2023-03-01T02:30:40;-0.60;99.90
51837;DHT22;38941;53.254;6.600;2023-03-01T02:33:04;0.90;99.90
51837;DHT22;38941;53.254;6.600;2023-03-01T02:35:05;-0.60;99.90
51837;DHT22;38941;53.254;6.600;2023-03-01T02:37:13;-0.70;99.90
51837;DHT22;38941;53.254;6.600;2023-03-01T02:39:20;0.40;99.90
51837;DHT22;38941;53.254;6.600;2023-03-01T02:41:25;-0.20;99.90
51837;DHT22;38941;53.254;6.600;2023-03-01T02:43:30;0.50;99.90
51837;DHT22;38941;53.254;6.600;2023-03-01T02:45:32;0.60;99.90
51837;DHT22;38941;53.254;6.600;2023-03-01T02:47:35;-0.70;99.90
51837;DHT22;38941;53.254;6.600;2023-03-01T02:49:37;0.80;99.90
51837;DHT22;38941;53.254;6.600;2023-03-01T02:54:27;-0.80;99.90
51837;DHT22;38941;53.254;6.600;2023-03-01T02:56:30;-1.40;99.90
51837;DHT22;38941;53.254;6.600;2023-03-01T02:58:30;-0.30;99.90
51837;DHT22;38941;53.254;6.600;2023-03-01T03:00:36;-0.80;99.90
51837;DHT22;38941;53.254;6.600;2023-03-01T03:02:41;-0.50;99.90
51837;DHT22;38941;53.254;6.600;2023-03-01T03:04:42;0.60;99.90
51837;DHT22;38941;53.254;6.600;2023-03-01T03:06:44;0.40;99.90
51837;DHT22;38941;53.254;6.600;2023-03-01T03:08:47;0.10;99.90
51837;DHT22;38941;53.254;6.600;2023-03-01T03:10:50;-0.20;99.90
51837;DHT22;38941;53.254;6.600;2023-03-01T03:12:54;-0.90;99.90
51837;DHT22;38941;53.254;6.600;2023-03-01T03:14:55;-0.40;99.90
51837;DHT22;38941;53.254;6.600;2023-03-01T03:16:57;-0.80;99.90
51837;DHT22;38941;53.254;6.600;2023-03-01T03:18:59;0.50;99.90
51837;DHT22;38941;53.254;6.600;2023-03-01T03:21:09;-0.50;99.90
51837;DHT22;38941;53.254;6.600;2023-03-01T03:23:15;0.50;99.90
51837;DHT22;38941;53.254;6.600;2023-03-01T03:25:17;0.70;99.90
51837;DHT22;38941;53.254;6.600;2023-03-01T03:27:23;-0.90;99.90
51837;DHT22;38941;53.254;6.600;2023-03-01T03:29:25;-0.90;99.90
51837;DHT22;38941;53.254;6.600;2023-03-01T03:31:27;0.10;99.90
51837;DHT22;38941;53.254;6.600;2023-03-01T03:33:30;0.30;99.90
51837;DHT22;38941;53.254;6.600;2023-03-01T03:35:37;-1.00;99.90
51837;DHT22;38941;53.254;6.600;2023-03-01T03:37:40;-0.80;99.90
51837;DHT22;38941;53.254;6.600;2023-03-01T03:40:02;-1.90;99.90
51837;DHT22;38941;53.254;6.600;2023-03-01T03:42:04;-1.00;99.90
51837;DHT22;38941;53.254;6.600;2023-03-01T03:44:06;-1.00;99.90
51837;DHT22;38941;53.254;6.600;2023-03-01T03:46:07;-0.70;99.90
51837;DHT22;38941;53.254;6.600;2023-03-01T03:48:09;-1.00;99.90
51837;DHT22;38941;53.254;6.600;2023-03-01T03:50:14;-0.40;99.90
51837;DHT22;38941;53.254;6.600;2023-03-01T03:52:16;-1.10;99.90
51837;DHT22;38941;53.254;6.600;2023-03-01T03:54:20;0.10;99.90
51837;DHT22;38941;53.254;6.600;2023-03-01T03:56:22;0.40;99.90
51837;DHT22;38941;53.254;6.600;2023-03-01T03:58:27;0.40;99.90
51837;DHT22;38941;53.254;6.600;2023-03-01T04:00:29;0.40;99.90
51837;DHT22;38941;53.254;6.600;2023-03-01T04:02:31;-0.90;99.90
51837;DHT22;38941;53.254;6.600;2023-03-01T04:04:33;-0.70;99.90
51837;DHT22;38941;53.254;6.600;2023-03-01T04:06:34;-0.40;99.90
51837;DHT22;38941;53.254;6.600;2023-03-01T04:08:35;-1.40;99.90
51837;DHT22;38941;53.254;6.600;2023-03-01T04:10:40;-1.60;99.90
51837;DHT22;38941;53.254;6.600;2023-03-01T04:12:41;-1.40;99.90
51837;DHT22;38941;53.254;6.600;2023-03-01T04:14:43;-0.50;99.90
51837;DHT22;38941;53.254;6.600;2023-03-01T04:16:45;-1.70;99.90
51837;DHT22;38941;53.254;6.600;2023-03-01T04:18:50;-1.60;99.90
51837;DHT22;38941;53.254;6.600;2023-03-01T04:20:53;-2.70;99.90
51837;DHT22;38941;53.254;6.600;2023-03-01T04:23:04;-0.40;99.90
51837;DHT22;38941;53.254;6.600;2023-03-01T04:25:13;-0.70;99.90
51837;DHT22;38941;53.254;6.600;2023-03-01T04:27:20;-1.90;99.90
51837;DHT22;38941;53.254;6.600;2023-03-01T04:29:27;-0.40;99.90
51837;DHT22;38941;53.254;6.600;2023-03-01T04:31:29;-1.80;99.90
51837;DHT22;38941;53.254;6.600;2023-03-01T04:33:31;-1.70;99.90
51837;DHT22;38941;53.254;6.600;2023-03-01T04:35:35;-1.20;99.90
51837;DHT22;38941;53.254;6.600;2023-03-01T04:37:37;-0.90;99.90
51837;DHT22;38941;53.254;6.600;2023-03-01T04:39:38;-1.90;99.90
51837;DHT22;38941;53.254;6.600;2023-03-01T04:41:48;-1.90;99.90
51837;DHT22;38941;53.254;6.600;2023-03-01T04:43:49;-1.80;99.90
51837;DHT22;38941;53.254;6.600;2023-03-01T04:46:04;-1.90;99.90
51837;DHT22;38941;53.254;6.600;2023-03-01T04:48:06;-2.70;99.90
51837;DHT22;38941;53.254;6.600;2023-03-01T04:50:10;-1.80;99.90
51837;DHT22;38941;53.254;6.600;2023-03-01T04:52:12;-1.80;99.90
51837;DHT22;38941;53.254;6.600;2023-03-01T04:54:14;-0.30;99.90
51837;DHT22;38941;53.254;6.600;2023-03-01T04:56:17;-1.80;99.90
51837;DHT22;38941;53.254;6.600;2023-03-01T04:58:23;-1.20;99.90
51837;DHT22;38941;53.254;6.600;2023-03-01T05:00:24;-1.90;99.90
51837;DHT22;38941;53.254;6.600;2023-03-01T05:02:26;-0.40;99.90
51837;DHT22;38941;53.254;6.600;2023-03-01T05:04:28;-2.10;99.90
51837;DHT22;38941;53.254;6.600;2023-03-01T05:06:29;-0.70;99.90
51837;DHT22;38941;53.254;6.600;2023-03-01T05:08:31;-1.80;99.90
51837;DHT22;38941;53.254;6.600;2023-03-01T05:10:36;-1.90;99.90
51837;DHT22;38941;53.254;6.600;2023-03-01T05:12:40;-1.90;99.90
51837;DHT22;38941;53.254;6.600;2023-03-01T05:14:41;-1.90;99.90
51837;DHT22;38941;53.254;6.600;2023-03-01T05:16:43;-1.90;99.90
51837;DHT22;38941;53.254;6.600;2023-03-01T05:18:45;-1.80;99.90
51837;DHT22;38941;53.254;6.600;2023-03-01T05:20:48;-1.40;99.90
51837;DHT22;38941;53.254;6.600;2023-03-01T05:22:56;-0.50;99.90
51837;DHT22;38941;53.254;6.600;2023-03-01T05:24:57;-0.40;99.90
51837;DHT22;38941;53.254;6.600;2023-03-01T05:27:00;-0.10;99.90
51837;DHT22;38941;53.254;6.600;2023-03-01T05:29:03;-1.80;99.90
51837;DHT22;38941;53.254;6.600;2023-03-01T05:31:06;-1.00;99.90
51837;DHT22;38941;53.254;6.600;2023-03-01T05:33:15;-1.80;99.90
51837;DHT22;38941;53.254;6.600;2023-03-01T05:35:17;-1.70;99.90
51837;DHT22;38941;53.254;6.600;2023-03-01T05:37:23;-1.20;99.90
51837;DHT22;38941;53.254;6.600;2023-03-01T05:39:26;-0.40;99.90
51837;DHT22;38941;53.254;6.600;2023-03-01T05:41:28;-1.70;99.90
51837;DHT22;38941;53.254;6.600;2023-03-01T05:43:32;-1.70;99.90
51837;DHT22;38941;53.254;6.600;2023-03-01T05:45:38;-0.70;99.90
51837;DHT22;38941;53.254;6.600;2023-03-01T05:47:43;-0.40;99.90
51837;DHT22;38941;53.254;6.600;2023-03-01T05:49:45;-0.80;99.90
51837;DHT22;38941;53.254;6.600;2023-03-01T05:51:52;-1.80;99.90
51837;DHT22;38941;53.254;6.600;2023-03-01T05:53:54;-0.40;99.90
51837;DHT22;38941;53.254;6.600;2023-03-01T05:55:55;-0.90;99.90
51837;DHT22;38941;53.254;6.600;2023-03-01T05:57:59;-1.90;99.90
51837;DHT22;38941;53.254;6.600;2023-03-01T06:00:00;-0.80;99.90
51837;DHT22;38941;53.254;6.600;2023-03-01T06:02:02;-3.10;99.90
51837;DHT22;38941;53.254;6.600;2023-03-01T06:04:04;-1.60;99.90
51837;DHT22;38941;53.254;6.600;2023-03-01T06:06:05;-1.30;99.90
51837;DHT22;38941;53.254;6.600;2023-03-01T06:08:10;-1.80;99.90
51837;DHT22;38941;53.254;6.600;2023-03-01T06:10:13;-0.80;99.90
51837;DHT22;38941;53.254;6.600;2023-03-01T06:12:15;-1.20;99.90
51837;DHT22;38941;53.254;6.600;2023-03-01T06:14:17;-2.00;99.90
51837;DHT22;38941;53.254;6.600;2023-03-01T06:16:20;-1.00;99.90
51837;DHT22;38941;53.254;6.600;2023-03-01T06:18:21;-2.00;99.90
51837;DHT22;38941;53.254;6.600;2023-03-01T06:20:25;-2.00;99.90
51837;DHT22;38941;53.254;6.600;2023-03-01T06:22:28;-2.00;99.90
51837;DHT22;38941;53.254;6.600;2023-03-01T06:24:29;-2.40;99.90
51837;DHT22;38941;53.254;6.600;2023-03-01T06:26:29;-1.50;99.90
51837;DHT22;38941;53.254;6.600;2023-03-01T06:28:32;-0.80;99.90
51837;DHT22;38941;53.254;6.600;2023-03-01T06:30:34;-0.60;99.90
51837;DHT22;38941;53.254;6.600;2023-03-01T06:32:35;-0.80;99.90
51837;DHT22;38941;53.254;6.600;2023-03-01T06:34:36;-2.00;99.90
51837;DHT22;38941;53.254;6.600;2023-03-01T06:36:38;-0.40;99.90
51837;DHT22;38941;53.254;6.600;2023-03-01T06:38:39;-2.00;99.90
51837;DHT22;38941;53.254;6.600;2023-03-01T06:40:42;-1.60;99.90
51837;DHT22;38941;53.254;6.600;2023-03-01T06:42:49;-2.20;99.90
51837;DHT22;38941;53.254;6.600;2023-03-01T06:44:51;-1.20;99.90
51837;DHT22;38941;53.254;6.600;2023-03-01T06:46:53;-0.60;99.90
51837;DHT22;38941;53.254;6.600;2023-03-01T06:48:55;-1.90;99.90
51837;DHT22;38941;53.254;6.600;2023-03-01T06:50:58;-2.30;99.90
51837;DHT22;38941;53.254;6.600;2023-03-01T06:52:59;-1.70;99.90
51837;DHT22;38941;53.254;6.600;2023-03-01T06:55:00;-0.50;99.90
51837;DHT22;38941;53.254;6.600;2023-03-01T06:57:02;-2.80;99.90
51837;DHT22;38941;53.254;6.600;2023-03-01T06:59:04;-1.60;99.90
51837;DHT22;38941;53.254;6.600;2023-03-01T07:01:08;-1.30;99.90
51837;DHT22;38941;53.254;6.600;2023-03-01T07:03:09;-1.60;99.90
51837;DHT22;38941;53.254;6.600;2023-03-01T07:05:11;-1.80;99.90
51837;DHT22;38941;53.254;6.600;2023-03-01T07:07:16;-0.20;99.90
51837;DHT22;38941;53.254;6.600;2023-03-01T07:09:19;-0.70;99.90
51837;DHT22;38941;53.254;6.600;2023-03-01T07:11:23;-0.30;99.90
51837;DHT22;38941;53.254;6.600;2023-03-01T07:13:25;-0.10;99.90
51837;DHT22;38941;53.254;6.600;2023-03-01T07:15:27;-1.00;99.90
51837;DHT22;38941;53.254;6.600;2023-03-01T07:17:29;0.80;99.90
51837;DHT22;38941;53.254;6.600;2023-03-01T07:19:31;-0.50;99.90
51837;DHT22;38941;53.254;6.600;2023-03-01T07:21:32;-0.40;99.90
51837;DHT22;38941;53.254;6.600;2023-03-01T07:23:34;0.80;99.90
51837;DHT22;38941;53.254;6.600;2023-03-01T07:25:39;0.30;99.90
51837;DHT22;38941;53.254;6.600;2023-03-01T07:27:40;1.00;99.90
51837;DHT22;38941;53.254;6.600;2023-03-01T07:29:40;0.80;99.90
51837;DHT22;38941;53.254;6.600;2023-03-01T07:31:44;0.70;99.90
51837;DHT22;38941;53.254;6.600;2023-03-01T07:33:46;-0.10;99.90
51837;DHT22;38941;53.254;6.600;2023-03-01T07:35:47;0.90;99.90
51837;DHT22;38941;53.254;6.600;2023-03-01T07:37:50;0.20;99.90
51837;DHT22;38941;53.254;6.600;2023-03-01T07:39:51;1.60;99.90
51837;DHT22;38941;53.254;6.600;2023-03-01T07:41:52;0.80;99.90
51837;DHT22;38941;53.254;6.600;2023-03-01T07:43:54;0.60;99.90
51837;DHT22;38941;53.254;6.600;2023-03-01T07:46:00;1.40;99.90
51837;DHT22;38941;53.254;6.600;2023-03-01T07:48:01;1.00;99.90
51837;DHT22;38941;53.254;6.600;2023-03-01T07:50:03;0.30;99.90
51837;DHT22;38941;53.254;6.600;2023-03-01T07:52:04;0.40;99.90
51837;DHT22;38941;53.254;6.600;2023-03-01T07:54:12;2.00;99.90
51837;DHT22;38941;53.254;6.600;2023-03-01T07:56:15;0.70;99.90
51837;DHT22;38941;53.254;6.600;2023-03-01T07:58:18;2.20;99.90
51837;DHT22;38941;53.254;6.600;2023-03-01T08:00:21;2.20;99.90
51837;DHT22;38941;53.254;6.600;2023-03-01T08:02:27;2.00;99.90
51837;DHT22;38941;53.254;6.600;2023-03-01T08:04:29;1.90;99.90
51837;DHT22;38941;53.254;6.600;2023-03-01T08:06:30;2.40;99.90
51837;DHT22;38941;53.254;6.600;2023-03-01T08:08:32;2.30;99.90
51837;DHT22;38941;53.254;6.600;2023-03-01T08:10:34;2.60;99.90
51837;DHT22;38941;53.254;6.600;2023-03-01T08:12:34;3.30;99.90
51837;DHT22;38941;53.254;6.600;2023-03-01T08:14:35;4.00;99.90
51837;DHT22;38941;53.254;6.600;2023-03-01T08:16:36;3.50;99.90
51837;DHT22;38941;53.254;6.600;2023-03-01T08:18:38;3.60;99.90
51837;DHT22;38941;53.254;6.600;2023-03-01T08:20:39;3.90;99.90
51837;DHT22;38941;53.254;6.600;2023-03-01T08:22:40;4.20;99.90
51837;DHT22;38941;53.254;6.600;2023-03-01T08:24:41;4.40;99.90
51837;DHT22;38941;53.254;6.600;2023-03-01T08:26:44;5.00;99.90
51837;DHT22;38941;53.254;6.600;2023-03-01T08:28:45;5.10;99.90
51837;DHT22;38941;53.254;6.600;2023-03-01T08:30:46;5.50;99.90
51837;DHT22;38941;53.254;6.600;2023-03-01T08:32:47;6.00;99.90
51837;DHT22;38941;53.254;6.600;2023-03-01T08:34:48;6.60;99.90
51837;DHT22;38941;53.254;6.600;2023-03-01T08:36:49;7.30;99.90
51837;DHT22;38941;53.254;6.600;2023-03-01T08:38:52;7.90;99.90
51837;DHT22;38941;53.254;6.600;2023-03-01T08:40:53;8.50;99.80
51837;DHT22;38941;53.254;6.600;2023-03-01T08:42:53;9.00;99.30
51837;DHT22;38941;53.254;6.600;2023-03-01T08:44:56;9.50;98.80
51837;DHT22;38941;53.254;6.600;2023-03-01T08:46:57;10.00;98.60
51837;DHT22;38941;53.254;6.600;2023-03-01T08:48:58;10.50;97.80
51837;DHT22;38941;53.254;6.600;2023-03-01T08:51:10;10.90;97.10
51837;DHT22;38941;53.254;6.600;2023-03-01T08:53:12;11.20;96.30
51837;DHT22;38941;53.254;6.600;2023-03-01T08:55:13;11.50;96.90
51837;DHT22;38941;53.254;6.600;2023-03-01T08:57:16;11.90;96.20
51837;DHT22;38941;53.254;6.600;2023-03-01T08:59:18;12.30;95.80
51837;DHT22;38941;53.254;6.600;2023-03-01T09:01:19;12.70;95.60
51837;DHT22;38941;53.254;6.600;2023-03-01T09:03:20;13.00;94.70
51837;DHT22;38941;53.254;6.600;2023-03-01T09:05:21;13.60;94.30
51837;DHT22;38941;53.254;6.600;2023-03-01T09:09:28;13.50;93.50
51837;DHT22;38941;53.254;6.600;2023-03-01T09:11:29;14.10;92.50
51837;DHT22;38941;53.254;6.600;2023-03-01T09:13:30;14.10;91.20
51837;DHT22;38941;53.254;6.600;2023-03-01T09:15:31;13.90;90.20
51837;DHT22;38941;53.254;6.600;2023-03-01T09:17:33;13.80;90.10
51837;DHT22;38941;53.254;6.600;2023-03-01T09:19:34;14.00;89.20
51837;DHT22;38941;53.254;6.600;2023-03-01T09:21:35;14.30;88.90
51837;DHT22;38941;53.254;6.600;2023-03-01T09:23:40;14.70;87.70
51837;DHT22;38941;53.254;6.600;2023-03-01T09:25:41;15.00;86.60
51837;DHT22;38941;53.254;6.600;2023-03-01T09:27:42;15.20;84.00
51837;DHT22;38941;53.254;6.600;2023-03-01T09:29:43;15.60;83.30
51837;DHT22;38941;53.254;6.600;2023-03-01T09:31:44;15.90;82.30
51837;DHT22;38941;53.254;6.600;2023-03-01T09:33:49;16.20;80.50
51837;DHT22;38941;53.254;6.600;2023-03-01T09:35:59;16.40;78.00
51837;DHT22;38941;53.254;6.600;2023-03-01T09:38:00;16.60;76.20
51837;DHT22;38941;53.254;6.600;2023-03-01T09:40:03;16.70;75.90
51837;DHT22;38941;53.254;6.600;2023-03-01T09:42:04;16.90;74.40
51837;DHT22;38941;53.254;6.600;2023-03-01T09:45:10;17.10;73.90
51837;DHT22;38941;53.254;6.600;2023-03-01T09:46:45;17.10;70.30
51837;DHT22;38941;53.254;6.600;2023-03-01T09:49:04;17.30;72.00
51837;DHT22;38941;53.254;6.600;2023-03-01T09:51:12;17.40;69.60
51837;DHT22;38941;53.254;6.600;2023-03-01T09:55:34;17.80;66.40
51837;DHT22;38941;53.254;6.600;2023-03-01T09:57:50;18.00;68.20
51837;DHT22;38941;53.254;6.600;2023-03-01T10:00:24;17.80;67.60
51837;DHT22;38941;53.254;6.600;2023-03-01T10:05:10;17.90;67.20
51837;DHT22;38941;53.254;6.600;2023-03-01T10:09:58;17.80;64.70
51837;DHT22;38941;53.254;6.600;2023-03-01T10:12:02;17.60;67.80
51837;DHT22;38941;53.254;6.600;2023-03-01T10:18:34;16.90;67.60
51837;DHT22;38941;53.254;6.600;2023-03-01T10:22:52;16.60;64.30
51837;DHT22;38941;53.254;6.600;2023-03-01T10:24:54;16.40;67.50
51837;DHT22;38941;53.254;6.600;2023-03-01T10:26:57;16.40;67.70
51837;DHT22;38941;53.254;6.600;2023-03-01T10:29:09;16.50;67.40
51837;DHT22;38941;53.254;6.600;2023-03-01T10:31:17;16.50;66.10
51837;DHT22;38941;53.254;6.600;2023-03-01T10:33:49;16.60;66.60
51837;DHT22;38941;53.254;6.600;2023-03-01T10:35:55;16.60;64.30
51837;DHT22;38941;53.254;6.600;2023-03-01T10:38:08;16.60;67.40
51837;DHT22;38941;53.254;6.600;2023-03-01T10:40:10;16.60;64.80
51837;DHT22;38941;53.254;6.600;2023-03-01T10:42:30;16.40;65.40
51837;DHT22;38941;53.254;6.600;2023-03-01T10:46:43;16.00;64.60
51837;DHT22;38941;53.254;6.600;2023-03-01T10:48:44;16.00;65.80
51837;DHT22;38941;53.254;6.600;2023-03-01T10:53:01;16.30;65.10
51837;DHT22;38941;53.254;6.600;2023-03-01T10:55:24;16.50;65.50
51837;DHT22;38941;53.254;6.600;2023-03-01T10:57:33;16.70;62.70
51837;DHT22;38941;53.254;6.600;2023-03-01T10:59:38;16.70;63.80
51837;DHT22;38941;53.254;6.600;2023-03-01T11:01:40;16.90;64.70
51837;DHT22;38941;53.254;6.600;2023-03-01T11:03:41;17.00;64.50
51837;DHT22;38941;53.254;6.600;2023-03-01T11:08:11;17.40;62.50
51837;DHT22;38941;53.254;6.600;2023-03-01T11:10:21;17.40;63.50
51837;DHT22;38941;53.254;6.600;2023-03-01T11:12:24;17.20;61.50
51837;DHT22;38941;53.254;6.600;2023-03-01T11:14:28;17.20;62.80
51837;DHT22;38941;53.254;6.600;2023-03-01T11:16:35;17.30;62.50
51837;DHT22;38941;53.254;6.600;2023-03-01T11:18:36;17.40;61.30
51837;DHT22;38941;53.254;6.600;2023-03-01T11:20:37;17.40;61.80
51837;DHT22;38941;53.254;6.600;2023-03-01T11:22:52;17.40;61.80
51837;DHT22;38941;53.254;6.600;2023-03-01T11:24:54;17.50;58.30
51837;DHT22;38941;53.254;6.600;2023-03-01T11:26:56;17.60;61.10
51837;DHT22;38941;53.254;6.600;2023-03-01T11:29:02;17.90;61.30
51837;DHT22;38941;53.254;6.600;2023-03-01T11:31:09;18.00;59.90
51837;DHT22;38941;53.254;6.600;2023-03-01T11:33:44;18.10;59.20
51837;DHT22;38941;53.254;6.600;2023-03-01T11:35:58;18.00;56.20
51837;DHT22;38941;53.254;6.600;2023-03-01T11:38:14;17.90;54.40
51837;DHT22;38941;53.254;6.600;2023-03-01T11:40:37;18.10;57.60
51837;DHT22;38941;53.254;6.600;2023-03-01T11:45:17;18.40;54.70
51837;DHT22;38941;53.254;6.600;2023-03-01T11:52:36;18.40;52.70
51837;DHT22;38941;53.254;6.600;2023-03-01T12:06:25;18.60;53.80
51837;DHT22;38941;53.254;6.600;2023-03-01T12:08:35;18.30;50.00
51837;DHT22;38941;53.254;6.600;2023-03-01T12:10:43;18.30;53.00
51837;DHT22;38941;53.254;6.600;2023-03-01T12:24:45;19.10;51.60
51837;DHT22;38941;53.254;6.600;2023-03-01T12:27:07;19.20;51.60
51837;DHT22;38941;53.254;6.600;2023-03-01T12:29:33;19.10;50.90
51837;DHT22;38941;53.254;6.600;2023-03-01T12:31:56;19.20;49.70
51837;DHT22;38941;53.254;6.600;2023-03-01T12:49:49;19.30;50.10
51837;DHT22;38941;53.254;6.600;2023-03-01T12:52:09;19.40;48.70
51837;DHT22;38941;53.254;6.600;2023-03-01T12:54:16;19.40;47.60
51837;DHT22;38941;53.254;6.600;2023-03-01T12:56:23;19.40;48.80
51837;DHT22;38941;53.254;6.600;2023-03-01T12:58:46;19.60;48.80
51837;DHT22;38941;53.254;6.600;2023-03-01T13:03:25;19.60;47.00
51837;DHT22;38941;53.254;6.600;2023-03-01T13:08:22;19.10;44.60
51837;DHT22;38941;53.254;6.600;2023-03-01T13:10:50;18.90;45.20
51837;DHT22;38941;53.254;6.600;2023-03-01T13:14:56;18.70;48.10
51837;DHT22;38941;53.254;6.600;2023-03-01T13:16:57;18.80;48.30
51837;DHT22;38941;53.254;6.600;2023-03-01T13:21:11;19.10;47.70
51837;DHT22;38941;53.254;6.600;2023-03-01T13:25:25;19.10;47.70
51837;DHT22;38941;53.254;6.600;2023-03-01T13:27:25;19.10;48.20
51837;DHT22;38941;53.254;6.600;2023-03-01T13:29:44;18.90;48.10
51837;DHT22;38941;53.254;6.600;2023-03-01T13:35:56;19.00;48.20
51837;DHT22;38941;53.254;6.600;2023-03-01T13:42:54;19.10;47.90
51837;DHT22;38941;53.254;6.600;2023-03-01T13:44:56;19.30;47.20
51837;DHT22;38941;53.254;6.600;2023-03-01T13:49:00;19.50;46.80
51837;DHT22;38941;53.254;6.600;2023-03-01T13:51:03;19.70;47.00
51837;DHT22;38941;53.254;6.600;2023-03-01T13:53:06;19.80;46.20
51837;DHT22;38941;53.254;6.600;2023-03-01T13:55:44;19.80;45.90
51837;DHT22;38941;53.254;6.600;2023-03-01T13:57:48;19.90;44.50
51837;DHT22;38941;53.254;6.600;2023-03-01T13:59:53;19.90;45.90
51837;DHT22;38941;53.254;6.600;2023-03-01T14:01:59;19.90;45.90
51837;DHT22;38941;53.254;6.600;2023-03-01T14:04:01;19.90;45.60
51837;DHT22;38941;53.254;6.600;2023-03-01T14:06:06;19.80;45.80
51837;DHT22;38941;53.254;6.600;2023-03-01T14:08:22;20.10;45.70
51837;DHT22;38941;53.254;6.600;2023-03-01T14:13:17;20.80;44.30
51837;DHT22;38941;53.254;6.600;2023-03-01T14:15:29;21.10;44.70
51837;DHT22;38941;53.254;6.600;2023-03-01T14:17:59;21.70;43.50
51837;DHT22;38941;53.254;6.600;2023-03-01T14:20:21;21.80;41.90
51837;DHT22;38941;53.254;6.600;2023-03-01T14:22:33;21.90;42.00
51837;DHT22;38941;53.254;6.600;2023-03-01T14:24:35;22.10;41.70
51837;DHT22;38941;53.254;6.600;2023-03-01T14:26:40;22.50;42.30
51837;DHT22;38941;53.254;6.600;2023-03-01T14:28:42;22.70;41.60
51837;DHT22;38941;53.254;6.600;2023-03-01T14:30:49;22.80;41.20
51837;DHT22;38941;53.254;6.600;2023-03-01T14:34:56;23.10;40.40
51837;DHT22;38941;53.254;6.600;2023-03-01T14:37:10;23.20;40.70
51837;DHT22;38941;53.254;6.600;2023-03-01T14:39:26;23.40;39.60
51837;DHT22;38941;53.254;6.600;2023-03-01T14:41:28;23.60;39.30
51837;DHT22;38941;53.254;6.600;2023-03-01T14:43:29;23.60;39.50
51837;DHT22;38941;53.254;6.600;2023-03-01T14:45:31;23.90;39.40
51837;DHT22;38941;53.254;6.600;2023-03-01T14:47:34;23.80;39.00
51837;DHT22;38941;53.254;6.600;2023-03-01T14:49:36;24.00;38.90
51837;DHT22;38941;53.254;6.600;2023-03-01T14:51:40;24.20;38.80
51837;DHT22;38941;53.254;6.600;2023-03-01T14:53:41;24.30;38.40
51837;DHT22;38941;53.254;6.600;2023-03-01T14:55:46;24.40;38.20
51837;DHT22;38941;53.254;6.600;2023-03-01T14:57:48;24.50;37.60
51837;DHT22;38941;53.254;6.600;2023-03-01T14:59:57;24.40;37.90
51837;DHT22;38941;53.254;6.600;2023-03-01T15:01:59;24.50;37.60